createdAt,value
2018-03-03T00:00:05.490Z,70.80
2018-03-03T00:01:05.473Z,68.90
2018-03-03T00:02:05.459Z,71.10
2018-03-03T00:03:05.450Z,73.50
2018-03-03T00:04:05.422Z,79.40
2018-03-03T00:05:05.414Z,63.90
2018-03-03T00:06:05.391Z,62.00
2018-03-03T00:07:05.379Z,62.00
2018-03-03T00:08:05.353Z,66.00
2018-03-03T00:09:05.337Z,53.80
2018-03-03T00:10:05.320Z,51.70
2018-03-03T00:11:05.306Z,50.90
2018-03-03T00:12:05.296Z,50.20
2018-03-03T00:13:05.275Z,51.20
2018-03-03T00:14:05.254Z,51.20
2018-03-03T00:15:05.237Z,53.30
2018-03-03T00:16:05.225Z,52.90
2018-03-03T00:17:05.208Z,57.10
2018-03-03T00:18:05.199Z,53.60
2018-03-03T00:19:05.175Z,57.00
2018-03-03T00:20:05.150Z,61.40
2018-03-03T00:21:05.134Z,57.10
2018-03-03T00:22:05.118Z,55.90
2018-03-03T00:23:05.099Z,66.10
2018-03-03T00:24:05.083Z,55.00
2018-03-03T00:25:05.066Z,59.90
2018-03-03T00:26:05.050Z,57.30
2018-03-03T00:27:05.033Z,57.80
2018-03-03T00:28:05.024Z,56.00
2018-03-03T00:29:04.999Z,60.00
2018-03-03T00:30:04.984Z,61.20
2018-03-03T00:31:04.964Z,57.90
2018-03-03T00:32:04.961Z,60.40
2018-03-03T00:33:04.941Z,61.50
2018-03-03T00:34:04.920Z,62.30
2018-03-03T00:35:04.899Z,55.60
2018-03-03T00:36:04.876Z,62.20
2018-03-03T00:37:04.863Z,57.60
2018-03-03T00:38:04.844Z,57.40
2018-03-03T00:39:04.831Z,57.20
2018-03-03T00:40:04.807Z,59.40
2018-03-03T00:41:04.810Z,63.20
2018-03-03T00:42:04.777Z,58.50
2018-03-03T00:43:04.759Z,64.60
2018-03-03T00:44:04.738Z,59.50
2018-03-03T00:45:04.720Z,59.80
2018-03-03T00:46:04.700Z,64.70
2018-03-03T00:47:04.681Z,60.60
2018-03-03T00:48:04.667Z,59.60
2018-03-03T00:49:04.646Z,61.00
2018-03-03T00:50:04.629Z,58.80
2018-03-03T00:51:04.610Z,56.50
2018-03-03T00:52:04.597Z,56.70
2018-03-03T00:53:04.576Z,54.50
2018-03-03T00:54:04.559Z,57.60
2018-03-03T00:55:04.543Z,59.00
2018-03-03T00:56:04.530Z,56.70
2018-03-03T00:57:04.506Z,51.60
2018-03-03T00:58:04.488Z,55.80
2018-03-03T00:59:04.470Z,53.50
2018-03-03T01:00:04.457Z,53.80
2018-03-03T01:01:04.433Z,54.40
2018-03-03T01:02:04.421Z,52.70
2018-03-03T01:03:04.396Z,53.70
2018-03-03T01:04:04.385Z,65.40
2018-03-03T01:05:04.366Z,56.70
2018-03-03T01:06:04.350Z,62.30
2018-03-03T01:07:04.329Z,50.60
2018-03-03T01:08:04.307Z,49.70
2018-03-03T01:09:04.289Z,46.80
2018-03-03T01:10:04.278Z,50.10
2018-03-03T01:11:04.258Z,50.70
2018-03-03T01:12:04.235Z,50.70
2018-03-03T01:13:04.216Z,50.50
2018-03-03T01:14:04.199Z,47.70
2018-03-03T01:15:04.182Z,49.50
2018-03-03T01:16:04.164Z,50.80
2018-03-03T01:17:04.145Z,47.00
2018-03-03T01:18:04.128Z,46.10
2018-03-03T01:19:04.109Z,45.70
2018-03-03T01:20:04.091Z,43.40
2018-03-03T01:21:04.075Z,46.10
2018-03-03T01:22:04.053Z,45.00
2018-03-03T01:23:04.036Z,43.00
2018-03-03T01:24:04.027Z,46.10
2018-03-03T01:25:04.002Z,43.30
2018-03-03T01:26:03.984Z,44.90
2018-03-03T01:27:03.964Z,40.90
2018-03-03T01:28:03.950Z,41.80
2018-03-03T01:29:03.936Z,42.00
2018-03-03T01:30:03.913Z,42.60
2018-03-03T01:31:03.895Z,45.10
2018-03-03T01:32:03.881Z,43.10
2018-03-03T01:33:03.858Z,40.00
2018-03-03T01:34:03.840Z,41.40
2018-03-03T01:35:03.821Z,41.70
2018-03-03T01:36:03.804Z,44.00
2018-03-03T01:37:03.789Z,50.00
2018-03-03T01:38:03.771Z,47.60
2018-03-03T01:39:03.749Z,44.30
2018-03-03T01:40:03.733Z,44.70
2018-03-03T01:41:03.717Z,43.00
2018-03-03T01:42:03.699Z,44.80
2018-03-03T01:43:03.684Z,45.80
2018-03-03T01:44:03.662Z,45.20
2018-03-03T01:45:03.645Z,45.80
2018-03-03T01:46:03.626Z,44.70
2018-03-03T01:47:03.612Z,46.70
2018-03-03T01:48:03.591Z,43.60
2018-03-03T01:49:03.572Z,46.90
2018-03-03T01:50:03.555Z,44.70
2018-03-03T01:51:03.539Z,49.40
2018-03-03T01:52:03.518Z,46.20
2018-03-03T01:53:03.501Z,44.30
2018-03-03T01:54:03.483Z,41.50
2018-03-03T01:55:03.463Z,41.50
2018-03-03T01:56:03.450Z,41.20
2018-03-03T01:57:03.429Z,43.50
2018-03-03T01:58:03.408Z,40.00
2018-03-03T01:59:03.392Z,38.70
2018-03-03T02:00:03.374Z,37.80
2018-03-03T02:01:03.362Z,39.70
2018-03-03T02:02:03.336Z,36.20
2018-03-03T02:03:03.318Z,36.60
2018-03-03T02:04:03.300Z,37.60
2018-03-03T02:05:03.286Z,37.00
2018-03-03T02:06:03.270Z,35.60
2018-03-03T02:07:03.244Z,36.70
2018-03-03T02:08:03.228Z,37.60
2018-03-03T02:09:03.214Z,36.80
2018-03-03T02:10:03.193Z,36.70
2018-03-03T02:11:03.174Z,36.50
2018-03-03T02:12:03.155Z,37.10
2018-03-03T02:13:03.138Z,37.10
2018-03-03T02:14:03.126Z,36.80
2018-03-03T02:15:03.100Z,37.40
2018-03-03T02:16:03.088Z,35.70
2018-03-03T02:17:03.086Z,38.50
2018-03-03T02:18:03.046Z,37.00
2018-03-03T02:19:03.033Z,36.20
2018-03-03T02:20:03.011Z,39.20
2018-03-03T02:21:02.993Z,39.50
2018-03-03T02:22:02.975Z,37.80
2018-03-03T02:23:02.960Z,37.00
2018-03-03T02:24:02.935Z,35.50
2018-03-03T02:25:02.919Z,35.50
2018-03-03T02:26:02.901Z,36.50
2018-03-03T02:27:02.882Z,36.00
2018-03-03T02:28:02.869Z,35.00
2018-03-03T02:29:02.843Z,35.50
2018-03-03T02:30:02.836Z,34.50
2018-03-03T02:31:02.809Z,34.50
2018-03-03T02:32:02.791Z,33.40
2018-03-03T02:33:02.779Z,34.30
2018-03-03T02:34:02.758Z,35.20
2018-03-03T02:35:02.744Z,35.70
2018-03-03T02:36:02.715Z,35.00
2018-03-03T02:37:02.698Z,36.40
2018-03-03T02:38:02.684Z,34.60
2018-03-03T02:39:02.662Z,35.70
2018-03-03T02:40:02.642Z,35.80
2018-03-03T02:41:02.629Z,36.10
2018-03-03T02:42:02.611Z,36.90
2018-03-03T02:43:02.590Z,39.00
2018-03-03T02:44:02.574Z,37.40
2018-03-03T02:45:02.558Z,36.50
2018-03-03T02:46:02.542Z,37.70
2018-03-03T02:47:02.516Z,37.90
2018-03-03T02:48:02.502Z,38.80
2018-03-03T02:49:02.477Z,33.30
2018-03-03T02:50:02.461Z,36.90
2018-03-03T02:51:02.446Z,34.80
2018-03-03T02:52:02.431Z,33.90
2018-03-03T02:53:02.406Z,33.10
2018-03-03T02:54:02.390Z,34.00
2018-03-03T02:55:02.402Z,34.40
2018-03-03T02:56:02.361Z,34.40
2018-03-03T02:57:02.332Z,35.80
2018-03-03T02:58:02.322Z,37.00
2018-03-03T02:59:02.299Z,36.20
2018-03-03T03:00:02.281Z,37.70
2018-03-03T03:01:02.266Z,36.50
2018-03-03T03:02:02.249Z,35.70
2018-03-03T03:03:02.224Z,36.90
2018-03-03T03:04:02.209Z,39.70
2018-03-03T03:05:02.197Z,40.10
2018-03-03T03:06:02.171Z,40.70
2018-03-03T03:07:02.153Z,40.80
2018-03-03T03:08:02.135Z,43.10
2018-03-03T03:09:02.122Z,40.30
2018-03-03T03:10:02.100Z,39.70
2018-03-03T03:11:02.084Z,39.40
2018-03-03T03:12:02.062Z,41.10
2018-03-03T03:13:02.050Z,40.50
2018-03-03T03:14:02.036Z,40.70
2018-03-03T03:15:02.009Z,41.40
2018-03-03T03:16:01.994Z,39.90
2018-03-03T03:17:01.973Z,42.80
2018-03-03T03:18:01.954Z,41.80
2018-03-03T03:19:01.942Z,41.70
2018-03-03T03:20:01.918Z,42.50
2018-03-03T03:21:01.902Z,42.80
2018-03-03T03:22:01.883Z,43.70
2018-03-03T03:23:01.863Z,42.80
2018-03-03T03:24:01.848Z,44.70
2018-03-03T03:25:01.831Z,44.20
2018-03-03T03:26:01.813Z,43.10
2018-03-03T03:27:01.792Z,42.40
2018-03-03T03:28:01.780Z,42.90
2018-03-03T03:29:01.758Z,42.30
2018-03-03T03:30:01.747Z,41.30
2018-03-03T03:31:01.729Z,40.90
2018-03-03T03:32:01.703Z,37.00
2018-03-03T03:33:01.695Z,37.20
2018-03-03T03:34:01.667Z,38.00
2018-03-03T03:35:01.650Z,35.10
2018-03-03T03:36:01.632Z,33.50
2018-03-03T03:37:01.615Z,35.30
2018-03-03T03:38:01.597Z,35.10
2018-03-03T03:39:01.579Z,34.80
2018-03-03T03:40:01.560Z,35.70
2018-03-03T03:41:01.547Z,36.20
2018-03-03T03:42:01.526Z,35.50
2018-03-03T03:43:01.512Z,36.60
2018-03-03T03:44:01.494Z,36.40
2018-03-03T03:45:01.487Z,36.50
2018-03-03T03:46:01.454Z,37.40
2018-03-03T03:47:01.438Z,37.30
2018-03-03T03:48:01.418Z,37.40
2018-03-03T03:49:01.407Z,37.30
2018-03-03T03:50:01.393Z,39.90
2018-03-03T03:51:01.365Z,41.00
2018-03-03T03:52:01.354Z,41.70
2018-03-03T03:53:01.335Z,40.30
2018-03-03T03:54:01.317Z,37.10
2018-03-03T03:55:01.299Z,38.50
2018-03-03T03:56:01.283Z,38.30
2018-03-03T03:57:01.259Z,36.70
2018-03-03T03:58:01.247Z,36.60
2018-03-03T03:59:01.222Z,37.60
2018-03-03T04:00:01.210Z,39.00
2018-03-03T04:01:01.192Z,41.20
2018-03-03T04:02:01.170Z,40.40
2018-03-03T04:03:01.156Z,41.70
2018-03-03T04:04:01.133Z,40.50
2018-03-03T04:05:01.129Z,42.60
2018-03-03T04:06:01.105Z,43.60
2018-03-03T04:07:01.088Z,42.00
2018-03-03T04:08:01.064Z,41.60
2018-03-03T04:09:01.047Z,40.60
2018-03-03T04:10:01.031Z,38.80
2018-03-03T04:11:01.012Z,37.80
2018-03-03T04:12:00.994Z,41.00
2018-03-03T04:13:00.977Z,40.20
2018-03-03T04:14:00.967Z,40.80
2018-03-03T04:15:00.942Z,40.60
2018-03-03T04:16:00.923Z,38.90
2018-03-03T04:17:00.905Z,40.50
2018-03-03T04:18:00.888Z,40.10
2018-03-03T04:19:00.871Z,40.20
2018-03-03T04:20:00.855Z,39.20
2018-03-03T04:21:00.837Z,38.60
2018-03-03T04:22:00.820Z,37.10
2018-03-03T04:23:00.799Z,39.20
2018-03-03T04:24:00.781Z,38.10
2018-03-03T04:25:00.767Z,38.30
2018-03-03T04:26:00.757Z,40.50
2018-03-03T04:27:00.738Z,38.10
2018-03-03T04:28:00.718Z,38.90
2018-03-03T04:29:00.694Z,38.80
2018-03-03T04:30:00.677Z,36.70
2018-03-03T04:31:00.660Z,36.20
2018-03-03T04:32:00.642Z,36.60
2018-03-03T04:33:00.631Z,35.90
2018-03-03T04:34:00.610Z,36.60
2018-03-03T04:35:00.594Z,37.80
2018-03-03T04:36:00.570Z,37.50
2018-03-03T04:37:00.554Z,37.40
2018-03-03T04:38:00.537Z,36.10
2018-03-03T04:39:00.521Z,36.70
2018-03-03T04:40:00.509Z,35.20
2018-03-03T04:41:00.485Z,34.60
2018-03-03T04:42:00.477Z,35.50
2018-03-03T04:43:00.452Z,33.30
2018-03-03T04:44:00.430Z,34.90
2018-03-03T04:45:00.415Z,34.60
2018-03-03T04:46:00.402Z,31.20
2018-03-03T04:47:00.378Z,32.00
2018-03-03T04:48:00.363Z,34.50
2018-03-03T04:49:00.346Z,34.90
2018-03-03T04:50:00.344Z,34.50
2018-03-03T04:51:00.316Z,32.20
2018-03-03T04:52:00.298Z,31.50
2018-03-03T04:53:00.277Z,31.50
2018-03-03T04:54:00.259Z,33.30
2018-03-03T04:55:00.241Z,32.00
2018-03-03T04:56:00.226Z,31.30
2018-03-03T04:57:00.205Z,34.00
2018-03-03T04:58:00.191Z,32.00
2018-03-03T04:59:00.171Z,33.70
2018-03-03T05:00:00.159Z,34.00
2018-03-03T05:01:00.152Z,34.40
2018-03-03T05:02:00.119Z,31.80
2018-03-03T05:03:00.102Z,33.00
2018-03-03T05:04:00.083Z,32.90
2018-03-03T05:05:00.068Z,32.60
2018-03-03T05:06:00.061Z,31.00
2018-03-03T05:07:00.037Z,31.70
2018-03-03T05:08:00.015Z,32.00
2018-03-03T05:08:59.999Z,32.10
2018-03-03T05:09:59.981Z,32.50
2018-03-03T05:10:59.962Z,33.10
2018-03-03T05:11:59.944Z,31.10
2018-03-03T05:12:59.926Z,31.70
2018-03-03T05:13:59.910Z,31.10
2018-03-03T05:14:59.900Z,31.20
2018-03-03T05:15:59.873Z,31.10
2018-03-03T05:16:59.857Z,31.40
2018-03-03T05:17:59.840Z,32.00
2018-03-03T05:18:59.826Z,32.30
2018-03-03T05:19:59.804Z,30.70
2018-03-03T05:20:59.786Z,29.80
2018-03-03T05:21:59.770Z,30.50
2018-03-03T05:22:59.753Z,30.50
2018-03-03T05:23:59.740Z,30.20
2018-03-03T05:24:59.724Z,30.20
2018-03-03T05:25:59.701Z,29.60
2018-03-03T05:26:59.693Z,29.30
2018-03-03T05:27:59.665Z,30.20
2018-03-03T05:28:59.647Z,30.10
2018-03-03T05:29:59.635Z,29.90
2018-03-03T05:30:59.610Z,27.90
2018-03-03T05:31:59.863Z,28.00
2018-03-03T05:32:59.588Z,31.60
2018-03-03T05:33:59.560Z,34.00
2018-03-03T05:34:59.551Z,34.30
2018-03-03T05:35:59.525Z,33.00
2018-03-03T05:36:59.507Z,33.70
2018-03-03T05:37:59.490Z,35.50
2018-03-03T05:38:59.476Z,34.70
2018-03-03T05:39:59.462Z,33.30
2018-03-03T05:40:59.443Z,34.10
2018-03-03T05:41:59.423Z,34.90
2018-03-03T05:42:59.411Z,35.70
2018-03-03T05:43:59.394Z,35.90
2018-03-03T05:44:59.375Z,32.60
2018-03-03T05:45:59.352Z,32.70
2018-03-03T05:46:59.340Z,31.50
2018-03-03T05:47:59.321Z,32.70
2018-03-03T05:48:59.300Z,31.20
2018-03-03T05:49:59.288Z,31.60
2018-03-03T05:50:59.269Z,33.50
2018-03-03T05:51:59.247Z,33.10
2018-03-03T05:52:59.236Z,34.60
2018-03-03T05:53:59.214Z,34.00
2018-03-03T05:54:59.195Z,34.90
2018-03-03T05:55:59.176Z,31.80
2018-03-03T05:56:59.161Z,34.20
2018-03-03T05:57:59.150Z,30.60
2018-03-03T05:58:59.124Z,31.90
2018-03-03T05:59:59.138Z,31.60
2018-03-03T06:00:59.092Z,28.70
2018-03-03T06:01:59.074Z,29.70
2018-03-03T06:02:59.056Z,30.60
2018-03-03T06:03:59.039Z,30.20
2018-03-03T06:04:59.029Z,30.80
2018-03-03T06:05:59.019Z,31.30
2018-03-03T06:06:58.999Z,30.60
2018-03-03T06:07:58.971Z,31.10
2018-03-03T06:08:58.957Z,31.30
2018-03-03T06:09:58.940Z,32.20
2018-03-03T06:10:58.937Z,30.50
2018-03-03T06:11:58.915Z,31.00
2018-03-03T06:12:58.895Z,32.10
2018-03-03T06:13:58.872Z,31.40
2018-03-03T06:14:58.853Z,33.40
2018-03-03T06:15:58.844Z,32.40
2018-03-03T06:16:58.822Z,33.20
2018-03-03T06:17:58.810Z,33.70
2018-03-03T06:18:58.786Z,32.90
2018-03-03T06:19:58.768Z,30.80
2018-03-03T06:20:58.752Z,29.20
2018-03-03T06:21:58.735Z,32.50
2018-03-03T06:22:58.720Z,32.20
2018-03-03T06:23:58.698Z,31.90
2018-03-03T06:24:58.680Z,30.20
2018-03-03T06:25:58.675Z,32.50
2018-03-03T06:26:58.647Z,31.90
2018-03-03T06:27:58.641Z,33.50
2018-03-03T06:28:58.613Z,31.40
2018-03-03T06:29:58.607Z,29.00
2018-03-03T06:30:58.580Z,31.70
2018-03-03T06:31:58.568Z,31.40
2018-03-03T06:32:58.544Z,32.80
2018-03-03T06:33:58.533Z,33.40
2018-03-03T06:34:58.519Z,30.70
2018-03-03T06:35:58.498Z,32.80
2018-03-03T06:36:58.489Z,31.40
2018-03-03T06:37:58.464Z,32.90
2018-03-03T06:38:58.442Z,30.80
2018-03-03T06:39:58.426Z,31.30
2018-03-03T06:40:58.409Z,31.60
2018-03-03T06:41:58.398Z,32.20
2018-03-03T06:42:58.375Z,31.30
2018-03-03T06:43:58.362Z,31.00
2018-03-03T06:44:58.340Z,30.60
2018-03-03T06:45:58.330Z,32.40
2018-03-03T06:46:58.308Z,35.60
2018-03-03T06:47:58.289Z,31.00
2018-03-03T06:48:58.273Z,32.20
2018-03-03T06:49:58.260Z,29.80
2018-03-03T06:50:58.244Z,31.50
2018-03-03T06:51:58.228Z,31.10
2018-03-03T06:52:58.204Z,32.20
2018-03-03T06:53:58.187Z,30.20
2018-03-03T06:54:58.169Z,30.90
2018-03-03T06:55:58.154Z,30.40
2018-03-03T06:56:58.139Z,29.70
2018-03-03T06:57:58.121Z,29.40
2018-03-03T06:58:58.104Z,27.80
2018-03-03T06:59:58.086Z,27.30
2018-03-03T07:00:58.069Z,28.30
2018-03-03T07:01:58.059Z,29.60
2018-03-03T07:02:58.034Z,30.40
2018-03-03T07:03:58.021Z,29.90
2018-03-03T07:04:58.004Z,30.60
2018-03-03T07:05:57.987Z,30.30
2018-03-03T07:06:57.967Z,31.40
2018-03-03T07:07:57.952Z,30.40
2018-03-03T07:08:57.935Z,30.80
2018-03-03T07:09:57.919Z,30.00
2018-03-03T07:10:57.908Z,28.70
2018-03-03T07:11:57.885Z,31.50
2018-03-03T07:12:57.868Z,29.50
2018-03-03T07:13:57.859Z,29.30
2018-03-03T07:14:57.840Z,28.60
2018-03-03T07:15:57.871Z,28.90
2018-03-03T07:16:57.802Z,26.20
2018-03-03T07:17:57.787Z,26.60
2018-03-03T07:18:57.777Z,27.30
2018-03-03T07:19:57.752Z,27.00
2018-03-03T07:20:57.752Z,27.30
2018-03-03T07:21:57.723Z,27.10
2018-03-03T07:22:57.704Z,27.30
2018-03-03T07:23:57.698Z,28.20
2018-03-03T07:24:57.677Z,28.50
2018-03-03T07:25:57.654Z,27.10
2018-03-03T07:26:57.641Z,28.20
2018-03-03T07:27:57.619Z,28.00
2018-03-03T07:28:57.608Z,27.00
2018-03-03T07:29:57.588Z,28.10
2018-03-03T07:30:57.568Z,25.90
2018-03-03T07:31:57.568Z,27.50
2018-03-03T07:32:57.537Z,28.10
2018-03-03T07:33:57.525Z,28.00
2018-03-03T07:34:57.503Z,27.60
2018-03-03T07:35:57.487Z,28.20
2018-03-03T07:36:57.470Z,28.50
2018-03-03T07:37:57.462Z,27.60
2018-03-03T07:38:57.439Z,27.20
2018-03-03T07:39:57.426Z,27.70
2018-03-03T07:40:57.408Z,29.30
2018-03-03T07:41:57.390Z,28.00
2018-03-03T07:42:57.373Z,29.50
2018-03-03T07:43:57.359Z,30.70
2018-03-03T07:44:57.352Z,28.50
2018-03-03T07:45:57.330Z,30.50
2018-03-03T07:46:57.308Z,29.80
2018-03-03T07:47:57.293Z,29.20
2018-03-03T07:48:57.278Z,29.60
2018-03-03T07:49:57.261Z,31.00
2018-03-03T07:50:57.253Z,30.10
2018-03-03T07:51:57.231Z,30.00
2018-03-03T07:52:57.221Z,30.50
2018-03-03T07:53:57.205Z,32.10
2018-03-03T07:54:57.181Z,29.10
2018-03-03T07:55:57.175Z,29.20
2018-03-03T07:56:57.157Z,29.40
2018-03-03T07:57:57.141Z,29.80
2018-03-03T07:58:57.127Z,29.60
2018-03-03T07:59:57.112Z,29.90
2018-03-03T08:00:57.090Z,30.00
2018-03-03T08:01:57.081Z,29.60
2018-03-03T08:02:57.061Z,30.80
2018-03-03T08:03:57.045Z,29.40
2018-03-03T08:04:57.031Z,29.70
2018-03-03T08:05:57.014Z,30.30
2018-03-03T08:06:57.001Z,29.50
2018-03-03T08:07:56.985Z,30.10
2018-03-03T08:08:56.969Z,29.50
2018-03-03T08:09:56.955Z,30.70
2018-03-03T08:10:56.941Z,29.70
2018-03-03T08:11:56.932Z,29.20
2018-03-03T08:12:56.916Z,29.50
2018-03-03T08:13:56.903Z,29.90
2018-03-03T08:14:56.882Z,29.20
2018-03-03T08:15:56.867Z,29.40
2018-03-03T08:16:56.851Z,28.40
2018-03-03T08:17:56.837Z,29.80
2018-03-03T08:18:56.824Z,30.80
2018-03-03T08:19:56.808Z,28.50
2018-03-03T08:20:56.854Z,29.30
2018-03-03T08:21:56.779Z,28.70
2018-03-03T08:22:56.770Z,28.90
2018-03-03T08:23:56.750Z,26.20
2018-03-03T08:24:56.738Z,26.80
2018-03-03T08:25:56.723Z,25.40
2018-03-03T08:26:56.708Z,23.60
2018-03-03T08:27:56.698Z,23.80
2018-03-03T08:28:56.680Z,22.00
2018-03-03T08:29:56.665Z,21.90
2018-03-03T08:30:56.651Z,22.10
2018-03-03T08:31:56.639Z,22.70
2018-03-03T08:32:56.646Z,23.90
2018-03-03T08:33:56.610Z,23.50
2018-03-03T08:34:56.593Z,26.20
2018-03-03T08:35:56.580Z,27.70
2018-03-03T08:36:56.564Z,27.90
2018-03-03T08:37:56.552Z,29.90
2018-03-03T08:38:56.536Z,29.00
2018-03-03T08:39:56.524Z,29.70
2018-03-03T08:40:56.507Z,31.10
2018-03-03T08:41:56.492Z,30.10
2018-03-03T08:42:56.486Z,31.60
2018-03-03T08:43:56.505Z,31.30
2018-03-03T08:44:56.458Z,30.20
2018-03-03T08:45:56.437Z,29.40
2018-03-03T08:46:56.420Z,31.00
2018-03-03T08:47:56.407Z,29.30
2018-03-03T08:48:56.395Z,27.70
2018-03-03T08:49:56.378Z,27.80
2018-03-03T08:50:56.368Z,30.10
2018-03-03T08:51:56.353Z,30.20
2018-03-03T08:52:56.332Z,29.40
2018-03-03T08:53:56.325Z,30.10
2018-03-03T08:54:56.303Z,28.90
2018-03-03T08:55:56.288Z,29.50
2018-03-03T08:56:56.279Z,29.50
2018-03-03T08:57:56.259Z,29.80
2018-03-03T08:58:56.242Z,30.20
2018-03-03T08:59:56.230Z,29.60
2018-03-03T09:00:56.214Z,29.30
2018-03-03T09:01:56.200Z,29.00
2018-03-03T09:02:56.186Z,30.40
2018-03-03T09:03:56.177Z,30.40
2018-03-03T09:04:56.163Z,29.50
2018-03-03T09:05:56.149Z,27.70
2018-03-03T09:06:56.124Z,28.40
2018-03-03T09:07:56.115Z,29.80
2018-03-03T09:08:56.098Z,29.80
2018-03-03T09:09:56.083Z,28.00
2018-03-03T09:10:56.068Z,28.10
2018-03-03T09:11:56.056Z,27.00
2018-03-03T09:12:56.040Z,27.40
2018-03-03T09:13:56.029Z,28.20
2018-03-03T09:14:56.011Z,28.40
2018-03-03T09:15:56.006Z,29.30
2018-03-03T09:16:56.049Z,27.70
2018-03-03T09:17:55.974Z,27.40
2018-03-03T09:18:55.956Z,28.50
2018-03-03T09:19:55.950Z,28.50
2018-03-03T09:20:55.932Z,29.20
2018-03-03T09:21:55.920Z,28.00
2018-03-03T09:22:55.902Z,28.00
2018-03-03T09:23:55.885Z,28.40
2018-03-03T09:24:55.875Z,28.80
2018-03-03T09:25:55.859Z,28.80
2018-03-03T09:26:55.844Z,28.70
2018-03-03T09:27:55.831Z,27.60
2018-03-03T09:28:55.818Z,28.10
2018-03-03T09:29:55.806Z,28.90
2018-03-03T09:30:55.797Z,29.50
2018-03-03T09:31:55.781Z,28.00
2018-03-03T09:32:55.764Z,28.80
2018-03-03T09:33:55.750Z,28.70
2018-03-03T09:34:55.736Z,29.40
2018-03-03T09:35:55.725Z,30.10
2018-03-03T09:36:55.712Z,30.00
2018-03-03T09:37:55.702Z,30.50
2018-03-03T09:38:55.683Z,29.30
2018-03-03T09:39:55.671Z,29.70
2018-03-03T09:40:55.664Z,29.10
2018-03-03T09:41:55.647Z,29.40
2018-03-03T09:42:55.635Z,31.30
2018-03-03T09:43:55.621Z,30.80
2018-03-03T09:44:55.604Z,29.20
2018-03-03T09:45:55.592Z,29.00
2018-03-03T09:46:55.579Z,30.40
2018-03-03T09:47:55.570Z,29.40
2018-03-03T09:48:55.560Z,30.20
2018-03-03T09:49:55.539Z,30.80
2018-03-03T09:50:55.526Z,29.80
2018-03-03T09:51:55.511Z,29.20
2018-03-03T09:52:55.506Z,27.90
2018-03-03T09:53:55.490Z,28.70
2018-03-03T09:54:55.484Z,28.70
2018-03-03T09:55:55.485Z,28.50
2018-03-03T09:56:55.455Z,28.70
2018-03-03T09:57:55.443Z,28.30
2018-03-03T09:58:55.423Z,29.50
2018-03-03T09:59:55.412Z,28.60
2018-03-03T10:00:55.403Z,30.60
2018-03-03T10:02:05.924Z,29.30
2018-03-03T10:02:55.378Z,29.50
2018-03-03T10:03:55.359Z,29.60
2018-03-03T10:04:55.349Z,31.20
2018-03-03T10:05:55.341Z,30.00
2018-03-03T10:06:55.322Z,31.70
2018-03-03T10:07:55.311Z,29.30
2018-03-03T10:08:55.299Z,28.40
2018-03-03T10:09:55.293Z,28.30
2018-03-03T10:10:55.272Z,28.20
2018-03-03T10:11:55.264Z,26.20
2018-03-03T10:12:55.251Z,25.40
2018-03-03T10:13:55.241Z,27.00
2018-03-03T10:14:55.227Z,26.30
2018-03-03T10:15:55.214Z,26.00
2018-03-03T10:16:55.203Z,27.60
2018-03-03T10:17:55.192Z,26.50
2018-03-03T10:18:55.186Z,25.90
2018-03-03T10:19:55.182Z,26.10
2018-03-03T10:20:55.156Z,27.10
2018-03-03T10:21:55.149Z,26.50
2018-03-03T10:22:55.138Z,25.70
2018-03-03T10:23:55.122Z,25.40
2018-03-03T10:24:55.114Z,27.70
2018-03-03T10:25:55.099Z,28.10
2018-03-03T10:26:55.086Z,27.30
2018-03-03T10:27:55.109Z,27.90
2018-03-03T10:28:55.072Z,27.30
2018-03-03T10:29:55.050Z,28.70
2018-03-03T10:30:55.036Z,29.10
2018-03-03T10:31:55.025Z,27.70
2018-03-03T10:32:55.012Z,29.10
2018-03-03T10:33:54.998Z,28.50
2018-03-03T10:34:54.985Z,27.10
2018-03-03T10:35:54.973Z,27.40
2018-03-03T10:36:54.965Z,28.00
2018-03-03T10:37:54.953Z,28.70
2018-03-03T10:38:54.936Z,28.60
2018-03-03T10:39:54.922Z,30.00
2018-03-03T10:40:54.918Z,29.60
2018-03-03T10:41:54.903Z,28.80
2018-03-03T10:42:54.891Z,27.60
2018-03-03T10:43:54.874Z,29.00
2018-03-03T10:44:54.861Z,30.00
2018-03-03T10:45:54.850Z,28.00
2018-03-03T10:46:54.839Z,29.20
2018-03-03T10:47:54.823Z,29.20
2018-03-03T10:48:54.823Z,28.70
2018-03-03T10:49:54.800Z,29.60
2018-03-03T10:50:54.788Z,29.20
2018-03-03T10:51:54.778Z,29.00
2018-03-03T10:52:54.764Z,29.50
2018-03-03T10:53:54.757Z,30.10
2018-03-03T10:54:54.746Z,28.30
2018-03-03T10:55:54.728Z,29.70
2018-03-03T10:56:54.717Z,27.80
2018-03-03T10:57:54.706Z,30.90
2018-03-03T10:58:54.693Z,28.70
2018-03-03T10:59:54.683Z,29.40
2018-03-03T11:00:54.670Z,28.40
2018-03-03T11:01:54.670Z,29.90
2018-03-03T11:02:54.647Z,29.50
2018-03-03T11:03:54.643Z,30.10
2018-03-03T11:04:54.632Z,28.50
2018-03-03T11:05:54.621Z,29.30
2018-03-03T11:06:54.610Z,30.10
2018-03-03T11:07:54.596Z,30.20
2018-03-03T11:08:54.581Z,31.00
2018-03-03T11:09:54.571Z,31.00
2018-03-03T11:10:54.557Z,29.90
2018-03-03T11:11:54.561Z,30.50
2018-03-03T11:12:54.536Z,30.90
2018-03-03T11:13:54.525Z,31.60
2018-03-03T11:14:54.512Z,29.30
2018-03-03T11:15:54.506Z,30.10
2018-03-03T11:16:54.491Z,31.40
2018-03-03T11:17:54.484Z,29.80
2018-03-03T11:18:54.467Z,28.40
2018-03-03T11:19:54.458Z,28.80
2018-03-03T11:20:54.444Z,28.60
2018-03-03T11:21:54.435Z,29.90
2018-03-03T11:22:54.422Z,30.10
2018-03-03T11:23:54.419Z,30.60
2018-03-03T11:24:54.401Z,31.10
2018-03-03T11:25:54.388Z,30.20
2018-03-03T11:26:54.382Z,30.10
2018-03-03T11:27:54.371Z,31.00
2018-03-03T11:28:54.355Z,30.80
2018-03-03T11:29:54.347Z,30.20
2018-03-03T11:30:54.335Z,32.90
2018-03-03T11:31:54.324Z,31.60
2018-03-03T11:32:54.311Z,31.70
2018-03-03T11:33:54.300Z,31.40
2018-03-03T11:34:54.292Z,30.80
2018-03-03T11:35:54.277Z,31.90
2018-03-03T11:36:54.271Z,33.40
2018-03-03T11:37:54.254Z,31.20
2018-03-03T11:38:54.245Z,32.00
2018-03-03T11:39:54.239Z,31.50
2018-03-03T11:40:54.228Z,32.50
2018-03-03T11:41:54.243Z,33.30
2018-03-03T11:42:54.207Z,32.10
2018-03-03T11:43:54.188Z,30.70
2018-03-03T11:44:54.188Z,32.60
2018-03-03T11:45:54.165Z,31.70
2018-03-03T11:46:54.156Z,31.40
2018-03-03T11:47:54.146Z,32.70
2018-03-03T11:48:54.131Z,33.20
2018-03-03T11:49:54.129Z,35.70
2018-03-03T11:50:54.110Z,35.00
2018-03-03T11:51:54.105Z,34.80
2018-03-03T11:52:54.093Z,36.70
2018-03-03T11:53:54.075Z,35.80
2018-03-03T11:54:54.065Z,36.20
2018-03-03T11:55:54.065Z,36.30
2018-03-03T11:56:54.040Z,39.10
2018-03-03T11:57:54.030Z,34.40
2018-03-03T11:58:54.016Z,36.10
2018-03-03T11:59:54.007Z,36.40
2018-03-03T12:00:53.997Z,36.00
2018-03-03T12:01:53.993Z,36.40
2018-03-03T12:02:53.976Z,38.80
2018-03-03T12:03:53.962Z,38.80
2018-03-03T12:04:53.949Z,36.40
2018-03-03T12:05:53.945Z,37.30
2018-03-03T12:06:53.926Z,38.60
2018-03-03T12:07:53.914Z,38.20
2018-03-03T12:08:53.907Z,36.60
2018-03-03T12:09:53.903Z,38.00
2018-03-03T12:10:53.888Z,36.90
2018-03-03T12:11:53.867Z,37.60
2018-03-03T12:12:53.856Z,38.00
2018-03-03T12:13:53.854Z,37.10
2018-03-03T12:14:53.833Z,37.40
2018-03-03T12:15:53.823Z,35.30
2018-03-03T12:16:53.820Z,35.50
2018-03-03T12:17:53.805Z,35.80
2018-03-03T12:18:53.788Z,36.40
2018-03-03T12:19:53.785Z,34.50
2018-03-03T12:20:53.766Z,34.70
2018-03-03T12:21:53.762Z,35.70
2018-03-03T12:22:53.742Z,35.80
2018-03-03T12:23:53.733Z,36.60
2018-03-03T12:24:53.720Z,36.10
2018-03-03T12:25:53.723Z,35.00
2018-03-03T12:26:53.698Z,35.40
2018-03-03T12:27:53.691Z,35.60
2018-03-03T12:28:53.698Z,33.60
2018-03-03T12:29:53.671Z,33.60
2018-03-03T12:30:53.652Z,34.40
2018-03-03T12:31:53.648Z,33.50
2018-03-03T12:32:53.631Z,34.90
2018-03-03T12:33:53.621Z,34.90
2018-03-03T12:34:53.613Z,33.30
2018-03-03T12:35:53.598Z,34.30
2018-03-03T12:36:53.586Z,35.50
2018-03-03T12:37:53.579Z,35.10
2018-03-03T12:38:53.596Z,33.60
2018-03-03T12:39:53.550Z,35.10
2018-03-03T12:40:53.545Z,32.90
2018-03-03T12:41:53.537Z,34.30
2018-03-03T12:42:53.522Z,33.60
2018-03-03T12:43:53.507Z,34.20
2018-03-03T12:44:53.496Z,36.00
2018-03-03T12:45:53.492Z,33.80
2018-03-03T12:46:53.479Z,34.30
2018-03-03T12:47:53.464Z,35.00
2018-03-03T12:48:53.451Z,34.00
2018-03-03T12:49:53.449Z,33.90
2018-03-03T12:50:53.429Z,35.80
2018-03-03T12:51:53.419Z,33.70